METAR Data
IDs: Format: Raw Decoded Include TAF

Data at: 1331 UTC 14 Dec 2019

PASO 141253Z AUTO 00000KT 10SM BKN041 OVC049 05/03 A2951 RMK AO2 RAB1158E08 SLP993 P0000 T00500028 TSNO
PASO 141153Z AUTO 00000KT 10SM OVC048 05/03 A2951 RMK AO2 SLP992 60000 70032 T00500028 10078 20039 53012 TSNO
PASO 141053Z AUTO 00000KT 10SM OVC050 05/02 A2949 RMK AO2 RAB25E40 SLP986 P0000 T00500022 TSNO
PASO 140953Z AUTO 00000KT 10SM OVC050 05/02 A2949 RMK AO2 SLP985 T00500022 TSNO
PASO 140853Z AUTO 00000KT 9SM FEW001 OVC055 04/02 A2947 RMK AO2 SLP980 T00440022 401170039 53006 TSNO
PASO 140753Z AUTO 00000KT 10SM OVC060 04/02 A2947 RMK AO2 SLP978 T00440022 TSNO
PASO 140653Z AUTO 00000KT 10SM OVC060 04/02 A2946 RMK AO2 SLP976 T00390017 TSNO
PASO 140553Z AUTO 00000KT 10SM OVC060 04/02 A2946 RMK AO2 SLP975 60003 T00440022 10083 20044 50000 TSNO
PASO 140453Z AUTO 00000KT 10SM FEW002 BKN065 BKN110 04/02 A2946 RMK AO2 SLP975 T00440022 TSNO
PASO 140429Z AUTO 00000KT 6SM HZ FEW002 SCT060 05/02 A2946 RMK AO2 T00500022 TSNO
PASO 140353Z AUTO 00000KT 5SM BR OVC060 05/03 A2945 RMK AO2 SLP974 T00500028 TSNO
PASO 140253Z AUTO 00000KT 10SM OVC060 06/03 A2945 RMK AO2 SLP974 60003 T00560033 50002 TSNO
PASO 140153Z AUTO 00000KT 10SM OVC065 06/03 A2946 RMK AO2 RAE02 SLP976 P0000 T00610033 TSNO
PASO 140053Z AUTO 00000KT 9SM -RA OVC032 08/03 A2945 RMK AO2 SLP973 P0003 T00830033 TSNO
PASO 132353Z AUTO 04003KT 8SM -RA BKN034 OVC044 07/04 A2945 RMK AO2 SLP972 P0003 60018 T00720039 10117 20056 51017 TSNO
PASO 132253Z AUTO 04005KT 10SM -RA BKN036 OVC050 08/04 A2944 RMK AO2 SLP968 P0003 T00780039 TSNO
PASO 132241Z AUTO 02007KT 10SM -RA FEW026 OVC034 09/04 A2942 RMK AO2 P0003 T00940039 TSNO
PASO 132153Z AUTO 04003KT 5SM RA OVC029 08/04 A2943 RMK AO2 SLP965 P0003 T00830039 TSNO
PASO 132137Z AUTO 00000KT 5SM -RA OVC029 08/04 A2941 RMK AO2 P0002 T00780039 TSNO
PASO 132053Z AUTO 21003KT 9SM -RA BKN041 OVC050 08/04 A2940 RMK AO2 RAB1954 SLP956 P0003 60009 T00780039 51033 TSNO
PASO 131953Z AUTO 00000KT 9SM BKN043 OVC055 06/03 A2937 RMK AO2 RAE48 SLP947 P0003 T00610033 TSNO
PASO 131853Z AUTO 00000KT 10SM -RA FEW018 OVC039 07/04 A2934 RMK AO2 SLP936 P0003 T00670039 TSNO
PASO 131753Z AUTO 00000KT 10SM -RA OVC041 08/04 A2930 RMK AO2 SLP923 P0003 60011 T00830039 10106 20056 53028 TSNO
PASO 131553Z AUTO VRB04KT 7SM RA OVC037 07/03 A2924 RMK AO2 SLP902 P0003 T00720028 TSNO
PASO 131453Z AUTO 03006KT 6SM RA OVC033 09/03 A2922 RMK AO2 RAB1355 SLP894 P0001 60002 T00890028 53018 TSNO
PASO 131353Z AUTO VRB06KT 10SM BKN049 09/03 A2920 RMK AO2 RAE1259B20E47 SLP888 P0001 T00940028 TSNO
PASO 131253Z AUTO VRB05KT 10SM -RA OVC036 10/03 A2918 RMK AO2 RAB09 SLP881 P0000 T01000028 TSNO
PASO 131153Z AUTO VRB03KT 10SM BKN060 BKN080 07/03 A2916 RMK AO2 SLP876 60002 70006 T00720028 10083 20050 51010 TSNO
PASO 131053Z AUTO 00000KT 10SM FEW022 06/02 A2915 RMK AO2 SLP872 T00560022 TSNO
PASO 130953Z AUTO 00000KT 10SM SCT050 BKN070 06/02 A2915 RMK AO2 SLP872 T00560022 TSNO
PASO 130911Z AUTO 00000KT 5SM BR FEW001 05/03 A2914 RMK AO2 T00500028 TSNO
PASO 130853Z AUTO 00000KT 8SM FEW040 BKN070 06/03 A2913 RMK AO2 SLP866 60002 T00610028 401220056 51007 TSNO
PASO 130829Z AUTO 00000KT 5SM BR SCT050 BKN070 06/03 A2914 RMK AO2 T00560033 TSNO
PASO 130817Z AUTO 00000KT 2SM BR SCT046 SCT080 06/03 A2914 RMK AO2 T00560033 TSNO
PASO 130753Z AUTO 00000KT 10SM FEW002 FEW075 SCT090 06/03 A2913 RMK AO2 RAE09 SLP863 P0000 T00610033 TSNO
PASO 130744Z AUTO 00000KT 3SM BR FEW002 06/03 A2913 RMK AO2 RAE09 P0000 T00560033 TSNO
PASO 130653Z AUTO 17004KT 6SM -RA BKN039 OVC075 08/04 A2913 RMK AO2 RAE28B44 SLP864 P0002 T00830039 TSNO
PASO 130553Z AUTO 00000KT 10SM -RA SCT048 OVC070 07/04 A2911 RMK AO2 SLP859 P0000 60001 T00670039 10089 20061 53006 TSNO
PASO 130453Z AUTO 00000KT 10SM -RA OVC048 07/04 A2910 RMK AO2 RAB47 SLP854 P0000 T00720039 TSNO
PASO 130353Z AUTO 00000KT 5SM BR SCT055 BKN080 06/04 A2910 RMK AO2 SLP854 T00610039 TSNO
PASO 130253Z AUTO 00000KT 9SM OVC050 07/04 A2910 RMK AO2 RAB0156E13 SLP853 P0001 60001 T00720044 58004 TSNO
PASO 130153Z AUTO 00000KT 10SM OVC048 07/04 A2910 RMK AO2 RAB34E51 SLP856 P0000 T00720044 TSNO